createdAt,value
2022-11-10T00:06:59.718Z,9.8
2022-11-10T00:17:01.368Z,9.7
2022-11-10T00:27:03.766Z,9.7
2022-11-10T00:37:05.626Z,9.6
2022-11-10T00:47:07.482Z,9.5
2022-11-10T00:57:09.466Z,9.5
2022-11-10T01:07:12.066Z,9.5
2022-11-10T01:17:14.117Z,9.5
2022-11-10T01:27:16.549Z,9.5
2022-11-10T01:37:19.098Z,9.4
2022-11-10T01:47:21.052Z,9.4
2022-11-10T01:57:23.374Z,9.3
2022-11-10T02:07:25.101Z,9.3
2022-11-10T02:17:27.576Z,9.3
2022-11-10T02:27:29.719Z,9.2
2022-11-10T02:37:31.530Z,9.1
2022-11-10T02:47:34.159Z,9.2
2022-11-10T02:57:36.429Z,9.3
2022-11-10T03:07:38.184Z,9.3
2022-11-10T03:17:39.979Z,9.3
2022-11-10T03:37:44.333Z,9.4
2022-11-10T03:47:46.319Z,9.4
2022-11-10T03:57:48.514Z,9.4
2022-11-10T04:07:50.948Z,9.5
2022-11-10T04:17:53.728Z,9.5
2022-11-10T04:27:55.890Z,9.3
2022-11-10T04:37:57.831Z,9.4
2022-11-10T04:47:59.734Z,9.3
2022-11-10T04:58:01.791Z,9.3
2022-11-10T05:08:04.125Z,9.2
2022-11-10T05:18:06.004Z,9.2
2022-11-10T05:28:08.613Z,9.2
2022-11-10T05:38:10.398Z,9.2
2022-11-10T05:48:12.355Z,9.2
2022-11-10T05:58:14.900Z,9.1
2022-11-10T06:08:17.503Z,9
2022-11-10T06:18:19.142Z,9.1
2022-11-10T06:28:21.345Z,9
2022-11-10T06:38:23.996Z,8.9
2022-11-10T06:48:25.702Z,8.9
2022-11-10T06:58:27.384Z,8.9
2022-11-10T07:08:29.706Z,8.9
2022-11-10T07:18:31.561Z,8.9
2022-11-10T07:28:33.367Z,9.1
2022-11-10T07:38:35.461Z,9.3
2022-11-10T07:48:38.151Z,9.5
2022-11-10T07:58:40.274Z,9.7
2022-11-10T08:08:42.576Z,9.8
2022-11-10T08:18:44.318Z,9.9
2022-11-10T08:28:46.907Z,10
2022-11-10T08:38:49.253Z,10.2
2022-11-10T08:48:51.597Z,10.5
2022-11-10T08:58:53.867Z,10.8
2022-11-10T09:08:55.629Z,11.4
2022-11-10T09:18:57.584Z,11.9
2022-11-10T09:28:59.872Z,12.3
2022-11-10T09:39:02.052Z,12.3
2022-11-10T09:49:04.245Z,12.7
2022-11-10T09:59:06.137Z,13.2
2022-11-10T10:09:08.310Z,13.6
2022-11-10T10:19:10.200Z,13.1
2022-11-10T10:29:12.429Z,13.6
2022-11-10T10:49:29.890Z,13.9
2022-11-10T10:59:19.858Z,14.2
2022-11-10T11:09:21.579Z,14.1
2022-11-10T11:19:23.458Z,14.3
2022-11-10T11:29:25.888Z,14.3
2022-11-10T11:39:27.899Z,14.3
2022-11-10T11:49:29.593Z,14.3
2022-11-10T11:59:31.905Z,14.4
2022-11-10T12:09:34.121Z,14.4
2022-11-10T12:19:35.998Z,14.6
2022-11-10T12:29:38.099Z,14.4
2022-11-10T12:39:40.424Z,15
2022-11-10T12:49:42.426Z,14.9
2022-11-10T12:59:44.948Z,15
2022-11-10T13:09:47.224Z,15.1
2022-11-10T13:19:49.410Z,14.9
2022-11-10T13:29:51.823Z,14.8
2022-11-10T13:39:54.429Z,15
2022-11-10T13:49:56.304Z,14.8
2022-11-10T13:59:58.458Z,15
2022-11-10T14:10:00.821Z,14.9
2022-11-10T14:20:03.452Z,15
2022-11-10T14:30:06.055Z,14.5
2022-11-10T14:40:08.625Z,14.5
2022-11-10T14:50:11.108Z,14.2
2022-11-10T15:00:13.672Z,14.1
2022-11-10T15:10:15.605Z,13.9
2022-11-10T15:20:18.081Z,13.8
2022-11-10T15:30:20.397Z,13.6
2022-11-10T15:40:22.449Z,13.5
2022-11-10T15:50:24.478Z,13.4
2022-11-10T16:00:26.961Z,13.3
2022-11-10T16:10:29.483Z,13.1
2022-11-10T16:20:31.279Z,12.9
2022-11-10T16:30:33.315Z,12.8
2022-11-10T16:40:35.109Z,12.7
2022-11-10T16:50:37.184Z,12.6
2022-11-10T17:00:39.127Z,12.4
2022-11-10T17:10:41.755Z,12.3
2022-11-10T17:20:43.919Z,12.2
2022-11-10T17:30:45.745Z,12.2
2022-11-10T17:40:47.413Z,11.9
2022-11-10T17:50:49.660Z,11.8
2022-11-10T18:00:51.784Z,11.8
2022-11-10T18:10:54.368Z,11.8
2022-11-10T18:20:56.141Z,11.6
2022-11-10T18:30:58.104Z,11.4
2022-11-10T18:41:00.415Z,11.6
2022-11-10T18:41:22.347Z,11.6
2022-11-10T18:51:09.673Z,11.5
2022-11-10T19:01:11.831Z,11.3
2022-11-10T19:41:20.533Z,11
2022-11-10T19:51:22.182Z,10.9
2022-11-10T20:01:24.270Z,10.8
2022-11-10T20:11:26.523Z,10.6
2022-11-10T20:21:28.937Z,10.6
2022-11-10T20:31:31.579Z,10.5
2022-11-10T20:51:36.186Z,10.4
2022-11-10T21:01:38.719Z,10.2
2022-11-10T21:11:40.426Z,10.1
2022-11-10T21:21:42.345Z,10.2
2022-11-10T21:31:44.143Z,10.1
2022-11-10T21:41:46.355Z,10
2022-11-10T21:51:48.676Z,9.9
2022-11-10T22:01:50.996Z,9.9
2022-11-10T22:21:57.344Z,9.7
2022-11-10T22:31:57.690Z,9.7
2022-11-10T22:41:59.596Z,9.6
2022-11-10T22:52:01.552Z,9.6
2022-11-10T23:02:04.114Z,9.5
2022-11-10T23:12:06.294Z,9.5
2022-11-10T23:32:10.889Z,9.5
2022-11-10T23:42:12.964Z,9.5
2022-11-10T23:52:14.952Z,9.4
